MSC Poh Lin — H8FC — position and weather

sailwx.info

Track history (hours):
 
Tides and Currents Weather Stations Pressure Air Temp Water Temp Dewpoint Dewpoint Depression Visibility Wind Speed Wind Dir Waves Ship Positions

MSC Poh Lin

Last reported at 2014-Aug-13 09:21 UTC. Time now 2014-Aug-21 10:15 UTC.
Position N 31°55' W 117°38'.
Warning: this ship's position is 8 days out of date.

Length 294 m; draft 11.8 m.

Type: Ship (hazmat cat A). MMSI: 357405000.

Date/timePositionNaut miles runAvg speedWind from/ knotsBaromVisibWave heightAir tempDewpointWater temp
2014-Aug-13 09:21N 31°55' W 117°38'1619.6
2014-Aug-13 08:33N 32°10' W 117°42'1919.1
2014-Aug-13 07:33N 32°29' W 117°45'1615.8
2014-Aug-13 06:33N 32°45' W 117°46'1313.0
2014-Aug-13 05:33N 32°57' W 117°48'1110.8
2014-Aug-13 04:33N 33°06' W 117°56'1111.2
2014-Aug-13 03:33N 33°15' W 118°03'1111.1
2014-Aug-13 02:33N 33°25' W 118°09'1111.1
2014-Aug-13 01:33N 33°36' W 118°13'9 8.8
2014-Aug-13 00:33N 33°45' W 118°13'2 1.5
2014-Aug-12 23:31N 33°46' W 118°14'0 0.0
2014-Aug-12 22:31N 33°46' W 118°14'0 0.0
2014-Aug-12 21:28N 33°46' W 118°14'0 0.0
2014-Aug-12 20:31N 33°46' W 118°14'0 0.0
2014-Aug-12 19:31N 33°46' W 118°14'0 0.0
2014-Aug-12 17:16N 33°46' W 118°14'0 0.0
2014-Aug-12 15:04N 33°46' W 118°14'0 0.0
2014-Aug-12 14:28N 33°46' W 118°14'0 0.0
2014-Aug-12 13:28N 33°46' W 118°14'0 0.0
2014-Aug-12 12:28N 33°46' W 118°14'1 0.6
2014-Aug-12 11:30N 33°46' W 118°13'3 2.7
2014-Aug-12 10:31N 33°44' W 118°12'7 6.7
2014-Aug-12 09:32N 33°37' W 118°13'7 6.9
2014-Aug-12 08:33N 33°36' W 118°21'7 7.5
2014-Aug-12 07:33N 33°36' W 118°29'9 8.5
2014-Aug-12 06:33N 33°37' W 118°40'9 8.7
2014-Aug-12 05:33N 33°37' W 118°50'9 8.8
2014-Aug-12 04:33N 33°36' W 119°00'9 8.8
2014-Aug-12 03:33N 33°36' W 119°11'9 8.9
2014-Aug-12 02:34N 33°35' W 119°22'9 8.8
2014-Aug-12 01:33N 33°33' W 119°32'9 9.1
2014-Aug-12 00:33N 33°32' W 119°43'9 9.1
2014-Aug-11 23:33N 33°31' W 119°54'1211.7
2014-Aug-11 22:29N 33°28' W 120°08'1314.4
2014-Aug-11 21:34N 33°31' W 120°24'1110.4
2014-Aug-11 20:32N 33°34' W 120°36'11 9.8
2014-Aug-11 19:26N 33°40' W 120°47'10 9.4
2014-Aug-11 18:21N 33°47' W 120°56'27 9.5
2014-Aug-11 15:32N 34°10' W 121°12'39 9.3
2014-Aug-11 11:18N 34°45' W 121°34'9 9.5
2014-Aug-11 10:19N 34°53' W 121°40'7 9.1
2014-Aug-11 09:33N 34°59' W 121°44'9 8.7
2014-Aug-11 08:33N 35°07' W 121°49'9 8.9
2014-Aug-11 07:33N 35°14' W 121°54'9 8.9
2014-Aug-11 06:33N 35°22' W 121°59'9 9.1
2014-Aug-11 05:33N 35°30' W 122°05'9 9.3
2014-Aug-11 04:33N 35°38' W 122°10'9 9.2
2014-Aug-11 03:33N 35°46' W 122°16'10 9.7
2014-Aug-11 02:33N 35°55' W 122°21'10 9.9
2014-Aug-11 01:33N 36°04' W 122°27'10 9.8
2014-Aug-11 00:33N 36°12' W 122°33'10 9.8
2014-Aug-10 23:33N 36°21' W 122°39'9 9.4
2014-Aug-10 22:33N 36°29' W 122°44'9 9.1
2014-Aug-10 21:33N 36°37' W 122°50'10 9.8
2014-Aug-10 20:33N 36°46' W 122°56'1111.1
2014-Aug-10 19:33N 36°55' W 123°02'1514.6
2014-Aug-10 18:33N 37°08' W 123°11'1211.8
2014-Aug-10 17:33N 37°20' W 123°12'1211.8
2014-Aug-10 16:33N 37°31' W 123°06'1211.8
2014-Aug-10 15:33N 37°39' W 122°55'1212.2
2014-Aug-10 14:33N 37°45' W 122°42'1414.0
2014-Aug-10 13:33N 37°51' W 122°26'6 5.9
2014-Aug-10 12:33N 37°49' W 122°19'0 0.0
2014-Aug-10 11:33N 37°49' W 122°19'0 0.0
2014-Aug-10 10:33N 37°49' W 122°19'0 0.0
2014-Aug-10 09:33N 37°49' W 122°19'0 0.0
2014-Aug-10 08:33N 37°49' W 122°19'0 0.0
2014-Aug-10 07:33N 37°49' W 122°19'0 0.0
2014-Aug-10 06:33N 37°49' W 122°19'0 0.0
2014-Aug-10 05:33N 37°49' W 122°19'0 0.0
2014-Aug-10 04:32N 37°49' W 122°19'0 0.0
2014-Aug-10 03:33N 37°49' W 122°19'0 0.0
2014-Aug-10 02:33N 37°49' W 122°19'0 0.0
2014-Aug-10 01:33N 37°49' W 122°19'0 0.0
2014-Aug-10 00:33N 37°49' W 122°19'1 1.2
2014-Aug-09 23:34N 37°49' W 122°20'10 9.6
2014-Aug-09 22:33N 37°47' W 122°32'1010.4
2014-Aug-09 21:33N 37°43' W 122°44'7 6.6
2014-Aug-09 20:33N 37°39' W 122°51'7 7.2
2014-Aug-09 19:33N 37°35' W 122°58'7 7.2
2014-Aug-09 18:33N 37°31' W 123°06'8 7.9
2014-Aug-09 17:32N 37°27' W 123°15'8 8.1
2014-Aug-09 16:33N 37°26' W 123°25'10 9.6
2014-Aug-09 15:34N 37°29' W 123°36'1515.4
2014-Aug-09 14:34N 37°40' W 123°50'1918.6
2014-Aug-09 13:34N 37°52' W 124°08'2120.7
2014-Aug-09 12:33N 38°06' W 124°28'2320.4
2014-Aug-09 11:26N 38°28' W 124°37'1820.5
2014-Aug-09 10:33N 38°45' W 124°41'57221.0
2014-Aug-08 07:23N 48°16' W 125°10'1720.8
2014-Aug-08 06:33N 48°31' W 124°58'4621.5
2014-Aug-08 04:26N 48°17' W 123°53'1718.3
2014-Aug-08 03:30N 48°18' W 123°27'1111.7
2014-Aug-08 02:33N 48°24' W 123°14'1817.6
2014-Aug-08 01:34N 48°42' W 123°16'1313.2
2014-Aug-08 00:34N 48°53' W 123°06'8 8.3
2014-Aug-07 23:33N 49°01' W 123°09'0 0.0
2014-Aug-07 22:32N 49°01' W 123°09'0 0.0
2014-Aug-07 21:32N 49°01' W 123°09'0 0.0
2014-Aug-07 20:29N 49°01' W 123°09'0 0.0
2014-Aug-07 19:32N 49°01' W 123°09'0 0.0
2014-Aug-07 18:32N 49°01' W 123°09'0 0.0
2014-Aug-07 17:32N 49°01' W 123°09'0 0.0
2014-Aug-07 16:29N 49°01' W 123°09'0 0.0
2014-Aug-07 15:32N 49°01' W 123°09'0 0.0
2014-Aug-07 14:32N 49°01' W 123°09'0 0.0
2014-Aug-07 13:32N 49°01' W 123°09'0 0.0
2014-Aug-07 12:32N 49°01' W 123°09'0 0.0
2014-Aug-07 11:32N 49°01' W 123°09'0 0.0
2014-Aug-07 10:32N 49°01' W 123°09'0 0.0
2014-Aug-07 09:32N 49°01' W 123°09'0 0.0
2014-Aug-07 08:32N 49°01' W 123°09'0 0.0
2014-Aug-07 07:29N 49°01' W 123°09'0 0.0
2014-Aug-07 06:29N 49°01' W 123°09'0 0.0
2014-Aug-07 05:29N 49°01' W 123°09'0 0.0
2014-Aug-07 04:29N 49°01' W 123°09'0 0.0
2014-Aug-07 03:32N 49°01' W 123°09'0 0.0
2014-Aug-07 02:32N 49°01' W 123°09'0 0.0
2014-Aug-07 01:29N 49°01' W 123°09'0 0.0
2014-Aug-07 00:32N 49°01' W 123°09'0 0.0
2014-Aug-06 23:29N 49°01' W 123°09'0 0.0
2014-Aug-06 22:32N 49°01' W 123°09'0 0.0
2014-Aug-06 21:32N 49°01' W 123°09'0 0.0
2014-Aug-06 20:32N 49°01' W 123°09'0 0.0
2014-Aug-06 19:32N 49°01' W 123°09'0 0.0
2014-Aug-06 18:32N 49°01' W 123°09'0 0.0
2014-Aug-06 17:33N 49°01' W 123°09'2 2.2
2014-Aug-06 16:33N 48°59' W 123°11'1 1.5
2014-Aug-06 15:33N 48°58' W 123°10'5 5.4
2014-Aug-06 14:34N 48°54' W 123°04'6 6.1
2014-Aug-06 13:33N 48°49' W 122°59'1313.3
2014-Aug-06 12:33N 48°40' W 123°15'1515.2
2014-Aug-06 11:33N 48°25' W 123°10'1010.0
2014-Aug-06 10:33N 48°20' W 123°23'1 1.4
2014-Aug-06 09:32N 48°20' W 123°21'0 0.1
2014-Aug-06 08:32N 48°20' W 123°21'0 0.1
2014-Aug-06 07:32N 48°21' W 123°21'0 0.0
2014-Aug-06 06:32N 48°21' W 123°21'0 0.0
2014-Aug-06 05:32N 48°21' W 123°20'0 0.0
2014-Aug-06 04:32N 48°21' W 123°21'0 0.0
2014-Aug-06 03:32N 48°21' W 123°21'0 0.0
2014-Aug-06 02:32N 48°21' W 123°21'0 0.0
2014-Aug-06 01:32N 48°21' W 123°21'0 0.0
2014-Aug-06 00:32N 48°21' W 123°21'0 0.1
2014-Aug-05 23:29N 48°21' W 123°21'0 0.0
2014-Aug-05 22:32N 48°21' W 123°21'0 0.1
2014-Aug-05 21:32N 48°21' W 123°21'0 0.0
2014-Aug-05 20:32N 48°21' W 123°21'0 0.0
2014-Aug-05 19:32N 48°21' W 123°21'0 0.3
2014-Aug-05 18:31N 48°21' W 123°20'0 0.0
2014-Aug-05 17:31N 48°21' W 123°20'0 0.0
2014-Aug-05 16:31N 48°21' W 123°20'0 0.1
2014-Aug-05 15:31N 48°21' W 123°20'0 0.1
2014-Aug-05 14:31N 48°21' W 123°21'0 0.0
2014-Aug-05 13:31N 48°21' W 123°21'0 0.1
2014-Aug-05 12:31N 48°21' W 123°21'0 0.1
2014-Aug-05 11:31N 48°21' W 123°21'0 0.0
2014-Aug-05 10:31N 48°21' W 123°21'0 0.1
2014-Aug-05 09:31N 48°21' W 123°21'0 0.4
2014-Aug-05 08:31N 48°21' W 123°20'0 0.0
2014-Aug-05 07:31N 48°21' W 123°20'0 0.1
2014-Aug-05 06:31N 48°21' W 123°20'0 0.0
2014-Aug-05 05:31N 48°21' W 123°20'1 1.1
2014-Aug-05 04:33N 48°20' W 123°21'9 8.7
2014-Aug-05 03:33N 48°11' W 123°23'9 9.1
2014-Aug-05 02:33N 48°12' W 123°09'1616.5
2014-Aug-05 01:33N 48°10' W 122°45'1717.3
2014-Aug-05 00:33N 47°56' W 122°30'1716.8
2014-Aug-04 23:33N 47°39' W 122°27'6 5.7
2014-Aug-04 22:32N 47°36' W 122°21'0 0.0
2014-Aug-04 21:32N 47°36' W 122°21'0 0.0
2014-Aug-04 20:29N 47°36' W 122°21'0 0.0
2014-Aug-04 19:32N 47°36' W 122°21'0 0.0
2014-Aug-04 18:32N 47°36' W 122°21'0 0.0
2014-Aug-04 17:32N 47°36' W 122°21'0 0.0
2014-Aug-04 16:32N 47°36' W 122°21'0 0.0
2014-Aug-04 15:32N 47°36' W 122°21'0 0.0
2014-Aug-04 14:29N 47°36' W 122°21'0 0.0
2014-Aug-04 13:29N 47°36' W 122°21'0 0.0
2014-Aug-04 12:32N 47°36' W 122°21'0 0.0
2014-Aug-04 11:32N 47°36' W 122°21'0 0.0
2014-Aug-04 10:32N 47°36' W 122°21'0 0.0
2014-Aug-04 09:32N 47°36' W 122°21'0 0.0
2014-Aug-04 08:29N 47°36' W 122°21'0 0.0
2014-Aug-04 07:32N 47°36' W 122°21'0 0.0
2014-Aug-04 06:32N 47°36' W 122°21'0 0.0
2014-Aug-04 05:32N 47°36' W 122°21'0 0.0
2014-Aug-04 04:14N 47°36' W 122°21'0 0.0
2014-Aug-04 03:26N 47°36' W 122°21'0 0.0
2014-Aug-04 02:32N 47°36' W 122°21'0 0.0
2014-Aug-04 01:32N 47°36' W 122°21'0 0.0
2014-Aug-04 00:32N 47°36' W 122°21'0 0.0
2014-Aug-03 23:33N 47°36' W 122°21'4 3.7
2014-Aug-03 22:33N 47°37' W 122°25'1414.6
2014-Aug-03 21:34N 47°52' W 122°28'1716.4
2014-Aug-03 20:33N 48°06' W 122°40'1616.5
2014-Aug-03 19:33N 48°12' W 123°03'1515.3
2014-Aug-03 18:33N 48°10' W 123°26'9 8.9
2014-Aug-03 17:33N 48°13' W 123°38'6010.1
2014-Aug-03 11:33N 48°13' W 125°09'1915.9
2014-Aug-03 10:23N 47°56' W 125°18'  
Track history (hours):
 
Tides and Currents Weather Stations Pressure Air Temp Water Temp Dewpoint Dewpoint Depression Visibility Wind Speed Wind Dir Waves Ship Positions

MSC Poh Lin

Last reported at 2014-Aug-13 09:21 UTC. Time now 2014-Aug-21 10:15 UTC.
Position N 31°55' W 117°38'.
Warning: this ship's position is 8 days out of date.

Length 294 m; draft 11.8 m.

Type: Ship (hazmat cat A). MMSI: 357405000.

Date/timePositionNaut miles runAvg speedWind from/ knotsBaromVisibWave heightAir tempDewpointWater temp
2014-Aug-13 09:21N 31°55' W 117°38'1619.6
2014-Aug-13 08:33N 32°10' W 117°42'1919.1
2014-Aug-13 07:33N 32°29' W 117°45'1615.8
2014-Aug-13 06:33N 32°45' W 117°46'1313.0
2014-Aug-13 05:33N 32°57' W 117°48'1110.8
2014-Aug-13 04:33N 33°06' W 117°56'1111.2
2014-Aug-13 03:33N 33°15' W 118°03'1111.1
2014-Aug-13 02:33N 33°25' W 118°09'1111.1
2014-Aug-13 01:33N 33°36' W 118°13'9 8.8
2014-Aug-13 00:33N 33°45' W 118°13'2 1.5
2014-Aug-12 23:31N 33°46' W 118°14'0 0.0
2014-Aug-12 22:31N 33°46' W 118°14'0 0.0
2014-Aug-12 21:28N 33°46' W 118°14'0 0.0
2014-Aug-12 20:31N 33°46' W 118°14'0 0.0
2014-Aug-12 19:31N 33°46' W 118°14'0 0.0
2014-Aug-12 17:16N 33°46' W 118°14'0 0.0
2014-Aug-12 15:04N 33°46' W 118°14'0 0.0
2014-Aug-12 14:28N 33°46' W 118°14'0 0.0
2014-Aug-12 13:28N 33°46' W 118°14'0 0.0
2014-Aug-12 12:28N 33°46' W 118°14'1 0.6
2014-Aug-12 11:30N 33°46' W 118°13'3 2.7
2014-Aug-12 10:31N 33°44' W 118°12'7 6.7
2014-Aug-12 09:32N 33°37' W 118°13'7 6.9
2014-Aug-12 08:33N 33°36' W 118°21'7 7.5
2014-Aug-12 07:33N 33°36' W 118°29'9 8.5
2014-Aug-12 06:33N 33°37' W 118°40'9 8.7
2014-Aug-12 05:33N 33°37' W 118°50'9 8.8
2014-Aug-12 04:33N 33°36' W 119°00'9 8.8
2014-Aug-12 03:33N 33°36' W 119°11'9 8.9
2014-Aug-12 02:34N 33°35' W 119°22'9 8.8
2014-Aug-12 01:33N 33°33' W 119°32'9 9.1
2014-Aug-12 00:33N 33°32' W 119°43'9 9.1
2014-Aug-11 23:33N 33°31' W 119°54'1211.7
2014-Aug-11 22:29N 33°28' W 120°08'1314.4
2014-Aug-11 21:34N 33°31' W 120°24'1110.4
2014-Aug-11 20:32N 33°34' W 120°36'11 9.8
2014-Aug-11 19:26N 33°40' W 120°47'10 9.4
2014-Aug-11 18:21N 33°47' W 120°56'27 9.5
2014-Aug-11 15:32N 34°10' W 121°12'39 9.3
2014-Aug-11 11:18N 34°45' W 121°34'9 9.5
2014-Aug-11 10:19N 34°53' W 121°40'7 9.1
2014-Aug-11 09:33N 34°59' W 121°44'9 8.7
2014-Aug-11 08:33N 35°07' W 121°49'9 8.9
2014-Aug-11 07:33N 35°14' W 121°54'9 8.9
2014-Aug-11 06:33N 35°22' W 121°59'9 9.1
2014-Aug-11 05:33N 35°30' W 122°05'9 9.3
2014-Aug-11 04:33N 35°38' W 122°10'9 9.2
2014-Aug-11 03:33N 35°46' W 122°16'10 9.7
2014-Aug-11 02:33N 35°55' W 122°21'10 9.9
2014-Aug-11 01:33N 36°04' W 122°27'10 9.8
2014-Aug-11 00:33N 36°12' W 122°33'10 9.8
2014-Aug-10 23:33N 36°21' W 122°39'9 9.4
2014-Aug-10 22:33N 36°29' W 122°44'9 9.1
2014-Aug-10 21:33N 36°37' W 122°50'10 9.8
2014-Aug-10 20:33N 36°46' W 122°56'1111.1
2014-Aug-10 19:33N 36°55' W 123°02'1514.6
2014-Aug-10 18:33N 37°08' W 123°11'1211.8
2014-Aug-10 17:33N 37°20' W 123°12'1211.8
2014-Aug-10 16:33N 37°31' W 123°06'1211.8
2014-Aug-10 15:33N 37°39' W 122°55'1212.2
2014-Aug-10 14:33N 37°45' W 122°42'1414.0
2014-Aug-10 13:33N 37°51' W 122°26'6 5.9
2014-Aug-10 12:33N 37°49' W 122°19'0 0.0
2014-Aug-10 11:33N 37°49' W 122°19'0 0.0
2014-Aug-10 10:33N 37°49' W 122°19'0 0.0
2014-Aug-10 09:33N 37°49' W 122°19'0 0.0
2014-Aug-10 08:33N 37°49' W 122°19'0 0.0
2014-Aug-10 07:33N 37°49' W 122°19'0 0.0
2014-Aug-10 06:33N 37°49' W 122°19'0 0.0
2014-Aug-10 05:33N 37°49' W 122°19'0 0.0
2014-Aug-10 04:32N 37°49' W 122°19'0 0.0
2014-Aug-10 03:33N 37°49' W 122°19'0 0.0
2014-Aug-10 02:33N 37°49' W 122°19'0 0.0
2014-Aug-10 01:33N 37°49' W 122°19'0 0.0
2014-Aug-10 00:33N 37°49' W 122°19'1 1.2
2014-Aug-09 23:34N 37°49' W 122°20'10 9.6
2014-Aug-09 22:33N 37°47' W 122°32'1010.4
2014-Aug-09 21:33N 37°43' W 122°44'7 6.6
2014-Aug-09 20:33N 37°39' W 122°51'7 7.2
2014-Aug-09 19:33N 37°35' W 122°58'7 7.2
2014-Aug-09 18:33N 37°31' W 123°06'8 7.9
2014-Aug-09 17:32N 37°27' W 123°15'8 8.1
2014-Aug-09 16:33N 37°26' W 123°25'10 9.6
2014-Aug-09 15:34N 37°29' W 123°36'1515.4
2014-Aug-09 14:34N 37°40' W 123°50'1918.6
2014-Aug-09 13:34N 37°52' W 124°08'2120.7
2014-Aug-09 12:33N 38°06' W 124°28'2320.4
2014-Aug-09 11:26N 38°28' W 124°37'1820.5
2014-Aug-09 10:33N 38°45' W 124°41'57221.0
2014-Aug-08 07:23N 48°16' W 125°10'1720.8
2014-Aug-08 06:33N 48°31' W 124°58'4621.5
2014-Aug-08 04:26N 48°17' W 123°53'1718.3
2014-Aug-08 03:30N 48°18' W 123°27'1111.7
2014-Aug-08 02:33N 48°24' W 123°14'1817.6
2014-Aug-08 01:34N 48°42' W 123°16'1313.2
2014-Aug-08 00:34N 48°53' W 123°06'8 8.3
2014-Aug-07 23:33N 49°01' W 123°09'0 0.0
2014-Aug-07 22:32N 49°01' W 123°09'0 0.0
2014-Aug-07 21:32N 49°01' W 123°09'0 0.0
2014-Aug-07 20:29N 49°01' W 123°09'0 0.0
2014-Aug-07 19:32N 49°01' W 123°09'0 0.0
2014-Aug-07 18:32N 49°01' W 123°09'0 0.0
2014-Aug-07 17:32N 49°01' W 123°09'0 0.0
2014-Aug-07 16:29N 49°01' W 123°09'0 0.0
2014-Aug-07 15:32N 49°01' W 123°09'0 0.0
2014-Aug-07 14:32N 49°01' W 123°09'0 0.0
2014-Aug-07 13:32N 49°01' W 123°09'0 0.0
2014-Aug-07 12:32N 49°01' W 123°09'0 0.0
2014-Aug-07 11:32N 49°01' W 123°09'0 0.0
2014-Aug-07 10:32N 49°01' W 123°09'0 0.0
2014-Aug-07 09:32N 49°01' W 123°09'0 0.0
2014-Aug-07 08:32N 49°01' W 123°09'0 0.0
2014-Aug-07 07:29N 49°01' W 123°09'0 0.0
2014-Aug-07 06:29N 49°01' W 123°09'0 0.0
2014-Aug-07 05:29N 49°01' W 123°09'0 0.0
2014-Aug-07 04:29N 49°01' W 123°09'0 0.0
2014-Aug-07 03:32N 49°01' W 123°09'0 0.0
2014-Aug-07 02:32N 49°01' W 123°09'0 0.0
2014-Aug-07 01:29N 49°01' W 123°09'0 0.0
2014-Aug-07 00:32N 49°01' W 123°09'0 0.0
2014-Aug-06 23:29N 49°01' W 123°09'0 0.0
2014-Aug-06 22:32N 49°01' W 123°09'0 0.0
2014-Aug-06 21:32N 49°01' W 123°09'0 0.0
2014-Aug-06 20:32N 49°01' W 123°09'0 0.0
2014-Aug-06 19:32N 49°01' W 123°09'0 0.0
2014-Aug-06 18:32N 49°01' W 123°09'0 0.0
2014-Aug-06 17:33N 49°01' W 123°09'2 2.2
2014-Aug-06 16:33N 48°59' W 123°11'1 1.5
2014-Aug-06 15:33N 48°58' W 123°10'5 5.4
2014-Aug-06 14:34N 48°54' W 123°04'6 6.1
2014-Aug-06 13:33N 48°49' W 122°59'1313.3
2014-Aug-06 12:33N 48°40' W 123°15'1515.2
2014-Aug-06 11:33N 48°25' W 123°10'1010.0
2014-Aug-06 10:33N 48°20' W 123°23'1 1.4
2014-Aug-06 09:32N 48°20' W 123°21'0 0.1
2014-Aug-06 08:32N 48°20' W 123°21'0 0.1
2014-Aug-06 07:32N 48°21' W 123°21'0 0.0
2014-Aug-06 06:32N 48°21' W 123°21'0 0.0
2014-Aug-06 05:32N 48°21' W 123°20'0 0.0
2014-Aug-06 04:32N 48°21' W 123°21'0 0.0
2014-Aug-06 03:32N 48°21' W 123°21'0 0.0
2014-Aug-06 02:32N 48°21' W 123°21'0 0.0
2014-Aug-06 01:32N 48°21' W 123°21'0 0.0
2014-Aug-06 00:32N 48°21' W 123°21'0 0.1
2014-Aug-05 23:29N 48°21' W 123°21'0 0.0
2014-Aug-05 22:32N 48°21' W 123°21'0 0.1
2014-Aug-05 21:32N 48°21' W 123°21'0 0.0
2014-Aug-05 20:32N 48°21' W 123°21'0 0.0
2014-Aug-05 19:32N 48°21' W 123°21'0 0.3
2014-Aug-05 18:31N 48°21' W 123°20'0 0.0
2014-Aug-05 17:31N 48°21' W 123°20'0 0.0
2014-Aug-05 16:31N 48°21' W 123°20'0 0.1
2014-Aug-05 15:31N 48°21' W 123°20'0 0.1
2014-Aug-05 14:31N 48°21' W 123°21'0 0.0
2014-Aug-05 13:31N 48°21' W 123°21'0 0.1
2014-Aug-05 12:31N 48°21' W 123°21'0 0.1
2014-Aug-05 11:31N 48°21' W 123°21'0 0.0
2014-Aug-05 10:31N 48°21' W 123°21'0 0.1
2014-Aug-05 09:31N 48°21' W 123°21'0 0.4
2014-Aug-05 08:31N 48°21' W 123°20'0 0.0
2014-Aug-05 07:31N 48°21' W 123°20'0 0.1
2014-Aug-05 06:31N 48°21' W 123°20'0 0.0
2014-Aug-05 05:31N 48°21' W 123°20'1 1.1
2014-Aug-05 04:33N 48°20' W 123°21'9 8.7
2014-Aug-05 03:33N 48°11' W 123°23'9 9.1
2014-Aug-05 02:33N 48°12' W 123°09'1616.5
2014-Aug-05 01:33N 48°10' W 122°45'1717.3
2014-Aug-05 00:33N 47°56' W 122°30'1716.8
2014-Aug-04 23:33N 47°39' W 122°27'6 5.7
2014-Aug-04 22:32N 47°36' W 122°21'0 0.0
2014-Aug-04 21:32N 47°36' W 122°21'0 0.0
2014-Aug-04 20:29N 47°36' W 122°21'0 0.0
2014-Aug-04 19:32N 47°36' W 122°21'0 0.0
2014-Aug-04 18:32N 47°36' W 122°21'0 0.0
2014-Aug-04 17:32N 47°36' W 122°21'0 0.0
2014-Aug-04 16:32N 47°36' W 122°21'0 0.0
2014-Aug-04 15:32N 47°36' W 122°21'0 0.0
2014-Aug-04 14:29N 47°36' W 122°21'0 0.0
2014-Aug-04 13:29N 47°36' W 122°21'0 0.0
2014-Aug-04 12:32N 47°36' W 122°21'0 0.0
2014-Aug-04 11:32N 47°36' W 122°21'0 0.0
2014-Aug-04 10:32N 47°36' W 122°21'0 0.0
2014-Aug-04 09:32N 47°36' W 122°21'0 0.0
2014-Aug-04 08:29N 47°36' W 122°21'0 0.0
2014-Aug-04 07:32N 47°36' W 122°21'0 0.0
2014-Aug-04 06:32N 47°36' W 122°21'0 0.0
2014-Aug-04 05:32N 47°36' W 122°21'0 0.0
2014-Aug-04 04:14N 47°36' W 122°21'0 0.0
2014-Aug-04 03:26N 47°36' W 122°21'0 0.0
2014-Aug-04 02:32N 47°36' W 122°21'0 0.0
2014-Aug-04 01:32N 47°36' W 122°21'0 0.0
2014-Aug-04 00:32N 47°36' W 122°21'0 0.0
2014-Aug-03 23:33N 47°36' W 122°21'4 3.7
2014-Aug-03 22:33N 47°37' W 122°25'1414.6
2014-Aug-03 21:34N 47°52' W 122°28'1716.4
2014-Aug-03 20:33N 48°06' W 122°40'1616.5
2014-Aug-03 19:33N 48°12' W 123°03'1515.3
2014-Aug-03 18:33N 48°10' W 123°26'9 8.9
2014-Aug-03 17:33N 48°13' W 123°38'6010.1
2014-Aug-03 11:33N 48°13' W 125°09'1915.9
2014-Aug-03 10:23N 47°56' W 125°18'  

Dump ship's entire track history